createdAt,value
2023-04-30T00:00:08.837Z,4.48
2023-04-30T00:02:36.405Z,4.84
2023-04-30T00:05:03.796Z,4.72
2023-04-30T00:07:31.289Z,4.67
2023-04-30T00:09:58.460Z,4.46
2023-04-30T00:12:27.116Z,4.19
2023-04-30T00:14:54.262Z,4.39
2023-04-30T00:17:21.423Z,4.99
2023-04-30T00:19:48.543Z,4.71
2023-04-30T00:22:15.706Z,4.69
2023-04-30T00:24:42.962Z,4.75
2023-04-30T00:27:10.101Z,4.93
2023-04-30T00:29:38.955Z,4.80
2023-04-30T00:32:06.298Z,4.76
2023-04-30T00:34:33.601Z,4.59
2023-04-30T00:37:00.880Z,4.64
2023-04-30T00:39:27.972Z,4.61
2023-04-30T00:41:55.662Z,4.70
2023-04-30T00:44:22.857Z,4.30
2023-04-30T00:46:51.473Z,4.39
2023-04-30T00:49:18.619Z,4.67
2023-04-30T00:51:45.996Z,4.57
2023-04-30T00:54:13.381Z,4.63
2023-04-30T00:56:41.839Z,4.36
2023-04-30T00:59:09.180Z,4.81
2023-04-30T01:01:36.802Z,4.61
2023-04-30T01:04:06.173Z,4.52
2023-04-30T01:06:34.071Z,4.60
2023-04-30T01:09:01.670Z,4.88
2023-04-30T01:11:52.335Z,4.79
2023-04-30T01:14:28.539Z,4.97
2023-04-30T01:17:05.721Z,4.67
2023-04-30T01:19:42.437Z,4.62
2023-04-30T01:22:16.795Z,4.90
2023-04-30T01:25:06.769Z,4.77
2023-04-30T01:28:01.214Z,4.73
2023-04-30T01:30:30.313Z,4.70
2023-04-30T01:32:57.958Z,4.68
2023-04-30T01:35:56.320Z,5.10
2023-04-30T01:38:39.943Z,4.80
2023-04-30T01:41:17.151Z,5.04
2023-04-30T01:43:55.777Z,5.02
2023-04-30T01:46:29.794Z,5.12
2023-04-30T01:49:08.744Z,5.19
2023-04-30T01:51:42.167Z,5.11
2023-04-30T01:54:22.896Z,5.14
2023-04-30T01:57:01.667Z,5.34
2023-04-30T01:59:32.542Z,4.94
2023-04-30T02:01:59.918Z,5.41
2023-04-30T02:04:27.303Z,5.71
2023-04-30T02:06:54.929Z,5.39
2023-04-30T02:09:22.235Z,5.24
2023-04-30T02:11:49.377Z,5.36
2023-04-30T02:14:16.476Z,5.51
2023-04-30T02:16:45.375Z,5.41
2023-04-30T02:19:12.704Z,5.36
2023-04-30T02:21:39.956Z,5.75
2023-04-30T02:24:07.537Z,5.57
2023-04-30T02:26:34.780Z,5.25
2023-04-30T02:29:01.983Z,5.31
2023-04-30T02:31:29.213Z,5.36
2023-04-30T02:33:57.755Z,3.23
2023-04-30T02:36:25.006Z,3.46
2023-04-30T02:38:52.016Z,3.44
2023-04-30T02:41:19.174Z,3.41
2023-04-30T02:43:46.333Z,3.57
2023-04-30T02:46:13.479Z,3.31
2023-04-30T02:48:40.796Z,3.65
2023-04-30T02:51:09.304Z,3.23
2023-04-30T02:53:36.331Z,3.27
2023-04-30T02:56:03.736Z,3.17
2023-04-30T02:58:30.890Z,3.37
2023-04-30T03:00:57.971Z,3.34
2023-04-30T03:03:25.134Z,3.30
2023-04-30T03:05:52.465Z,3.39
2023-04-30T03:08:21.027Z,3.09
2023-04-30T03:10:48.201Z,3.39
2023-04-30T03:13:15.308Z,3.33
2023-04-30T03:15:42.468Z,3.22
2023-04-30T03:18:11.161Z,3.17
2023-04-30T03:20:38.416Z,3.34
2023-04-30T03:23:05.507Z,3.28
2023-04-30T03:25:34.057Z,3.45
2023-04-30T03:28:01.132Z,3.16
2023-04-30T03:30:28.320Z,2.94
2023-04-30T03:32:55.443Z,3.28
2023-04-30T03:35:22.796Z,3.40
2023-04-30T03:37:49.875Z,3.61
2023-04-30T03:40:17.013Z,3.55
2023-04-30T03:42:45.499Z,3.13
2023-04-30T03:45:12.647Z,3.18
2023-04-30T03:47:39.813Z,3.41
2023-04-30T03:50:08.967Z,3.36
2023-04-30T03:52:36.318Z,3.78
2023-04-30T03:55:03.676Z,3.35
2023-04-30T03:57:31.619Z,3.38
2023-04-30T04:00:00.282Z,3.37
2023-04-30T04:02:27.488Z,3.09
2023-04-30T04:04:54.795Z,3.26
2023-04-30T04:07:21.868Z,3.04
2023-04-30T04:09:49.045Z,3.12
2023-04-30T04:12:16.239Z,3.06
2023-04-30T04:14:43.519Z,3.31
2023-04-30T04:17:12.121Z,3.14
2023-04-30T04:19:39.199Z,3.12
2023-04-30T04:22:06.466Z,3.39
2023-04-30T04:24:33.920Z,3.06
2023-04-30T04:27:01.194Z,3.18
2023-04-30T04:29:28.326Z,3.23
2023-04-30T04:31:55.597Z,2.92
2023-04-30T04:34:24.481Z,3.31
2023-04-30T04:36:51.659Z,3.19
2023-04-30T04:39:18.777Z,3.35
2023-04-30T04:41:45.997Z,3.35
2023-04-30T04:44:13.080Z,3.27
2023-04-30T04:46:40.245Z,3.53
2023-04-30T04:49:07.420Z,3.35
2023-04-30T04:51:36.212Z,3.41
2023-04-30T04:54:03.436Z,3.56
2023-04-30T04:56:30.536Z,3.30
2023-04-30T04:58:59.162Z,3.23
2023-04-30T05:01:26.326Z,3.40
2023-04-30T05:03:53.772Z,3.18
2023-04-30T05:06:21.061Z,3.26
2023-04-30T05:08:49.737Z,3.19
2023-04-30T05:11:16.951Z,2.98
2023-04-30T05:13:44.075Z,3.27
2023-04-30T05:16:11.234Z,3.36
2023-04-30T05:18:38.381Z,3.62
2023-04-30T05:21:05.536Z,3.43
2023-04-30T05:23:32.619Z,3.55
2023-04-30T05:26:01.195Z,3.53
2023-04-30T05:28:28.395Z,3.76
2023-04-30T05:30:55.580Z,3.90
2023-04-30T05:33:22.819Z,3.41
2023-04-30T05:35:49.979Z,3.70
2023-04-30T05:38:17.057Z,3.62
2023-04-30T05:40:44.191Z,3.92
2023-04-30T05:43:12.739Z,3.54
2023-04-30T05:45:39.900Z,3.71
2023-04-30T05:48:07.117Z,3.41
2023-04-30T05:50:34.336Z,3.45
2023-04-30T05:53:01.495Z,3.48
2023-04-30T05:55:28.807Z,3.27
2023-04-30T05:57:55.937Z,3.40
2023-04-30T06:00:24.717Z,3.13
2023-04-30T06:02:51.919Z,3.52
2023-04-30T06:05:19.115Z,3.45
2023-04-30T06:07:46.287Z,3.24
2023-04-30T06:10:13.552Z,3.16
2023-04-30T06:12:40.811Z,2.99
2023-04-30T06:15:08.608Z,3.14
2023-04-30T06:17:37.422Z,3.15
2023-04-30T06:20:05.616Z,3.09
2023-04-30T06:22:32.801Z,3.20
2023-04-30T06:25:00.080Z,3.14
2023-04-30T06:27:27.259Z,3.22
2023-04-30T06:29:54.651Z,3.07
2023-04-30T06:32:21.959Z,3.00
2023-04-30T06:34:50.759Z,3.23
2023-04-30T06:37:17.979Z,2.80
2023-04-30T06:39:45.097Z,3.38
2023-04-30T06:42:12.220Z,3.12
2023-04-30T06:44:39.438Z,3.07
2023-04-30T06:47:06.618Z,2.97
2023-04-30T06:49:33.652Z,3.11
2023-04-30T06:52:02.297Z,2.91
2023-04-30T06:54:29.420Z,3.18
2023-04-30T06:56:56.525Z,3.00
2023-04-30T06:59:23.809Z,2.99
2023-04-30T07:01:51.003Z,3.00
2023-04-30T07:04:18.190Z,2.83
2023-04-30T07:06:45.427Z,2.99
2023-04-30T07:09:14.149Z,3.02
2023-04-30T07:11:41.266Z,3.05
2023-04-30T07:14:08.428Z,2.96
2023-04-30T07:16:35.610Z,3.00
2023-04-30T07:19:03.022Z,3.22
2023-04-30T07:21:30.248Z,3.11
2023-04-30T07:23:57.427Z,3.32
2023-04-30T07:26:26.142Z,3.23
2023-04-30T07:28:53.205Z,3.30
2023-04-30T07:31:20.421Z,3.10
2023-04-30T07:33:47.608Z,3.33
2023-04-30T07:36:14.780Z,3.45
2023-04-30T07:38:42.059Z,3.25
2023-04-30T07:41:09.201Z,3.45
2023-04-30T07:43:37.760Z,3.41
2023-04-30T07:46:05.121Z,3.29
2023-04-30T07:48:32.261Z,3.38
2023-04-30T07:50:59.410Z,3.34
2023-04-30T07:53:26.648Z,3.39
2023-04-30T07:55:53.851Z,3.44
2023-04-30T07:58:21.009Z,3.32
2023-04-30T08:00:49.736Z,3.46
2023-04-30T08:03:17.010Z,3.26
2023-04-30T08:05:44.457Z,3.43
2023-04-30T08:08:11.571Z,3.70
2023-04-30T08:10:39.228Z,3.51
2023-04-30T08:13:06.541Z,3.43
2023-04-30T08:15:34.333Z,3.24
2023-04-30T08:18:03.608Z,3.35
2023-04-30T08:20:30.895Z,3.45
2023-04-30T08:22:58.103Z,3.53
2023-04-30T08:25:25.419Z,3.50
2023-04-30T08:27:52.568Z,3.33
2023-04-30T08:30:19.902Z,3.47
2023-04-30T08:32:47.570Z,3.34
2023-04-30T08:35:16.193Z,3.38
2023-04-30T08:37:43.605Z,3.57
2023-04-30T08:40:11.465Z,3.55
2023-04-30T08:42:46.281Z,3.90
2023-04-30T08:45:13.713Z,3.69
2023-04-30T08:47:41.781Z,3.62
2023-04-30T08:50:10.327Z,3.70
2023-04-30T08:52:40.357Z,3.51
2023-04-30T08:55:09.902Z,3.28
2023-04-30T08:57:37.763Z,4.00
2023-04-30T09:00:06.430Z,3.78
2023-04-30T09:02:34.295Z,3.66
2023-04-30T09:05:01.440Z,3.63
2023-04-30T09:07:34.064Z,3.75
2023-04-30T09:10:02.560Z,3.61
2023-04-30T09:12:29.880Z,3.63
2023-04-30T09:15:02.689Z,3.95
2023-04-30T09:17:31.122Z,3.60
2023-04-30T09:20:08.350Z,3.88
2023-04-30T09:22:37.338Z,3.66
2023-04-30T09:25:07.179Z,3.91
2023-04-30T09:27:34.306Z,3.98
2023-04-30T09:30:01.687Z,3.82
2023-04-30T09:32:28.851Z,3.89
2023-04-30T09:34:56.506Z,3.75
2023-04-30T09:37:36.021Z,3.62
2023-04-30T09:40:06.451Z,4.11
2023-04-30T09:42:33.862Z,3.90
2023-04-30T09:45:01.047Z,3.91
2023-04-30T09:47:30.727Z,4.42
2023-04-30T09:50:00.778Z,4.26
2023-04-30T09:52:29.138Z,4.37
2023-04-30T09:54:57.200Z,4.31
2023-04-30T09:57:30.658Z,4.33
2023-04-30T10:00:00.319Z,4.12
2023-04-30T10:02:28.496Z,4.38
2023-04-30T10:04:58.351Z,4.52
2023-04-30T10:07:34.476Z,4.53
2023-04-30T10:10:07.751Z,4.56
2023-04-30T10:12:43.295Z,4.46
2023-04-30T10:15:16.267Z,4.49
2023-04-30T10:17:51.723Z,4.08
2023-04-30T10:20:22.004Z,4.32
2023-04-30T10:22:50.320Z,4.33
2023-04-30T10:25:18.199Z,4.46
2023-04-30T10:27:46.833Z,4.48
2023-04-30T10:30:15.522Z,4.33
2023-04-30T10:33:07.126Z,4.66
2023-04-30T10:35:45.487Z,4.59
2023-04-30T10:38:22.387Z,4.50
2023-04-30T10:40:49.678Z,5.48
2023-04-30T10:43:19.597Z,5.17
2023-04-30T10:45:46.939Z,4.57
2023-04-30T10:48:16.567Z,4.64
2023-04-30T10:50:46.277Z,4.95
2023-04-30T10:53:14.840Z,4.72
2023-04-30T10:55:54.551Z,4.60
2023-04-30T10:58:28.115Z,4.97
2023-04-30T11:01:04.315Z,5.06
2023-04-30T11:03:33.046Z,5.00
2023-04-30T11:06:01.588Z,5.09
2023-04-30T11:08:35.947Z,5.14
2023-04-30T11:11:03.981Z,4.84
2023-04-30T11:13:41.882Z,5.04
2023-04-30T11:16:09.894Z,4.76
2023-04-30T11:18:43.942Z,5.13
2023-04-30T11:21:11.649Z,4.78
2023-04-30T11:23:42.383Z,4.93
2023-04-30T11:26:10.826Z,4.91
2023-04-30T11:28:50.197Z,4.69
2023-04-30T11:31:17.597Z,4.94
2023-04-30T11:33:44.844Z,5.01
2023-04-30T11:36:14.319Z,4.57
2023-04-30T11:38:42.221Z,4.79
2023-04-30T11:41:13.042Z,4.72
2023-04-30T11:43:41.651Z,4.48
2023-04-30T11:46:11.521Z,5.12
2023-04-30T11:48:40.270Z,4.59
2023-04-30T11:51:16.580Z,4.71
2023-04-30T11:53:47.044Z,4.71
2023-04-30T11:56:14.222Z,4.74
2023-04-30T11:58:42.792Z,4.80
2023-04-30T12:01:10.402Z,6.14
2023-04-30T12:03:41.823Z,6.26
2023-04-30T12:06:10.934Z,6.77
2023-04-30T12:08:38.182Z,6.48
2023-04-30T12:11:05.465Z,6.45
2023-04-30T12:13:32.568Z,6.65
2023-04-30T12:16:01.964Z,6.13
2023-04-30T12:18:29.164Z,4.68
2023-04-30T12:20:56.423Z,5.11
2023-04-30T12:23:23.923Z,5.60
2023-04-30T12:25:51.081Z,6.01
2023-04-30T12:28:18.269Z,5.94
2023-04-30T12:30:45.442Z,5.12
2023-04-30T12:33:13.951Z,5.57
2023-04-30T12:35:43.499Z,5.46
2023-04-30T12:38:10.867Z,5.61
2023-04-30T12:40:38.422Z,6.07
2023-04-30T12:43:07.812Z,5.71
2023-04-30T12:45:49.163Z,5.66
2023-04-30T12:48:19.219Z,5.51
2023-04-30T12:50:54.402Z,5.09
2023-04-30T12:53:22.602Z,4.86
2023-04-30T12:56:12.385Z,5.47
2023-04-30T12:58:40.105Z,5.47
2023-04-30T13:01:12.055Z,5.48
2023-04-30T13:03:41.172Z,5.57
2023-04-30T13:06:08.613Z,5.52
2023-04-30T13:08:45.781Z,5.53
2023-04-30T13:11:17.298Z,5.02
2023-04-30T13:13:44.488Z,5.29
2023-04-30T13:16:11.744Z,5.05
2023-04-30T13:18:40.391Z,5.67
2023-04-30T13:21:07.476Z,5.54
2023-04-30T13:23:44.498Z,5.39
2023-04-30T13:26:18.937Z,5.29
2023-04-30T13:28:46.119Z,4.90
2023-04-30T13:31:13.361Z,5.21
2023-04-30T13:33:42.105Z,4.51
2023-04-30T13:36:09.502Z,5.16
2023-04-30T13:38:36.601Z,5.37
2023-04-30T13:41:03.767Z,4.73
2023-04-30T13:43:30.920Z,4.71
2023-04-30T13:45:58.393Z,5.24
2023-04-30T13:48:25.619Z,5.09
2023-04-30T13:50:54.816Z,4.83
2023-04-30T13:53:22.162Z,5.27
2023-04-30T13:55:49.395Z,4.79
2023-04-30T13:58:17.381Z,4.59
2023-04-30T14:00:44.463Z,4.79
2023-04-30T14:03:11.932Z,5.08
2023-04-30T14:05:39.533Z,4.76
2023-04-30T14:08:08.159Z,4.96
2023-04-30T14:10:35.286Z,4.86
2023-04-30T14:13:02.442Z,4.98
2023-04-30T14:15:30.183Z,5.19
2023-04-30T14:17:57.320Z,4.86
2023-04-30T14:20:24.808Z,5.20
2023-04-30T14:22:51.900Z,5.30
2023-04-30T14:25:20.628Z,5.05
2023-04-30T14:27:48.406Z,4.79
2023-04-30T14:30:15.809Z,4.99
2023-04-30T14:32:43.134Z,5.01
2023-04-30T14:35:10.481Z,4.94
2023-04-30T14:37:37.722Z,5.37
2023-04-30T14:40:06.229Z,4.65
2023-04-30T14:42:34.756Z,4.60
2023-04-30T14:45:02.209Z,4.91
2023-04-30T14:47:29.678Z,4.93
2023-04-30T14:49:57.206Z,4.97
2023-04-30T14:52:24.721Z,5.11
2023-04-30T14:54:51.947Z,4.80
2023-04-30T14:57:19.383Z,4.30
2023-04-30T14:59:48.105Z,4.56
2023-04-30T15:02:15.264Z,4.61
2023-04-30T15:04:42.464Z,4.77
2023-04-30T15:07:09.525Z,4.29
2023-04-30T15:09:36.799Z,4.60
2023-04-30T15:12:04.323Z,4.62
2023-04-30T15:14:31.642Z,4.32
2023-04-30T15:17:00.383Z,4.29
2023-04-30T15:19:27.602Z,4.25
2023-04-30T15:21:54.682Z,4.62
2023-04-30T15:24:21.841Z,4.18
2023-04-30T15:26:49.100Z,4.44
2023-04-30T15:29:16.301Z,4.50
2023-04-30T15:31:44.855Z,4.53
2023-04-30T15:34:13.624Z,4.61
2023-04-30T15:36:40.863Z,5.00
2023-04-30T15:39:08.959Z,4.37
2023-04-30T15:41:36.108Z,4.47
2023-04-30T15:44:03.322Z,4.39
2023-04-30T15:46:30.584Z,4.49
2023-04-30T15:48:57.941Z,4.69
2023-04-30T15:51:26.566Z,4.41
2023-04-30T15:53:53.721Z,4.40
2023-04-30T15:56:20.958Z,4.05
2023-04-30T15:58:48.069Z,4.29
2023-04-30T16:01:15.132Z,4.00
2023-04-30T16:03:42.376Z,4.34
2023-04-30T16:06:10.156Z,4.37
2023-04-30T16:08:39.144Z,4.44
2023-04-30T16:11:06.517Z,4.39
2023-04-30T16:13:33.600Z,4.01
2023-04-30T16:16:00.927Z,4.24
2023-04-30T16:18:28.428Z,4.12
2023-04-30T16:20:56.169Z,4.08
2023-04-30T16:23:23.847Z,4.28
2023-04-30T16:25:52.550Z,4.11
2023-04-30T16:28:19.668Z,4.17
2023-04-30T16:30:46.902Z,6.85
2023-04-30T16:33:14.459Z,6.54
2023-04-30T16:35:41.619Z,6.34
2023-04-30T16:38:08.791Z,6.96
2023-04-30T16:40:36.040Z,6.72
2023-04-30T16:43:04.539Z,6.63
2023-04-30T16:45:31.763Z,7.79
2023-04-30T16:47:59.192Z,7.88
2023-04-30T16:50:26.461Z,7.45
2023-04-30T16:52:53.665Z,7.59
2023-04-30T16:55:21.138Z,8.33
2023-04-30T16:57:48.480Z,8.37
2023-04-30T17:00:17.419Z,8.46
2023-04-30T17:02:44.669Z,8.27
2023-04-30T17:05:12.321Z,8.12
2023-04-30T17:07:39.467Z,8.61
2023-04-30T17:10:07.982Z,8.48
2023-04-30T17:12:35.135Z,8.53
2023-04-30T17:15:02.399Z,8.09
2023-04-30T17:17:31.029Z,8.20
2023-04-30T17:19:58.304Z,8.60
2023-04-30T17:22:25.498Z,8.48
2023-04-30T17:24:52.841Z,8.40
2023-04-30T17:27:20.019Z,4.13
2023-04-30T17:29:47.136Z,4.38
2023-04-30T17:32:14.244Z,8.93
2023-04-30T17:34:42.959Z,9.17
2023-04-30T17:37:10.159Z,9.64
2023-04-30T17:39:37.262Z,10.17
2023-04-30T17:42:04.530Z,10.05
2023-04-30T17:44:31.664Z,10.13
2023-04-30T17:46:58.743Z,9.82
2023-04-30T17:49:25.931Z,9.83
2023-04-30T17:51:54.917Z,10.88
2023-04-30T17:54:22.161Z,11.34
2023-04-30T17:56:49.427Z,10.04
2023-04-30T17:59:16.844Z,9.74
2023-04-30T18:01:44.044Z,9.53
2023-04-30T18:04:16.489Z,8.60
2023-04-30T18:06:43.884Z,8.61
2023-04-30T18:09:12.472Z,8.15
2023-04-30T18:11:39.867Z,9.58
2023-04-30T18:14:07.033Z,9.68
2023-04-30T18:16:37.351Z,9.19
2023-04-30T18:19:06.624Z,9.05
2023-04-30T18:21:33.761Z,9.18
2023-04-30T18:24:00.924Z,9.77
2023-04-30T18:26:29.591Z,9.45
2023-04-30T18:28:56.738Z,9.91
2023-04-30T18:31:23.959Z,10.03
2023-04-30T18:33:51.082Z,9.95
2023-04-30T18:36:18.320Z,9.99
2023-04-30T18:38:45.575Z,10.06
2023-04-30T18:41:12.819Z,9.50
2023-04-30T18:43:41.363Z,9.43
2023-04-30T18:46:08.635Z,9.44
2023-04-30T18:48:35.841Z,9.69
2023-04-30T18:51:03.354Z,9.52
2023-04-30T18:53:30.662Z,10.05
2023-04-30T18:55:57.832Z,9.96
2023-04-30T18:58:25.134Z,10.49
2023-04-30T19:00:56.819Z,10.67
2023-04-30T19:03:24.173Z,11.37
2023-04-30T19:05:56.420Z,10.37
2023-04-30T19:08:23.541Z,10.58
2023-04-30T19:10:50.752Z,11.84
2023-04-30T19:13:18.041Z,13.22
2023-04-30T19:15:45.549Z,11.34
2023-04-30T19:18:14.214Z,10.85
2023-04-30T19:20:41.360Z,10.96
2023-04-30T19:23:08.702Z,10.34
2023-04-30T19:25:37.628Z,10.59
2023-04-30T19:28:05.119Z,9.99
2023-04-30T19:30:32.190Z,10.38
2023-04-30T19:33:02.759Z,10.58
2023-04-30T19:35:32.201Z,10.78
2023-04-30T19:37:59.438Z,10.92
2023-04-30T19:40:26.464Z,11.32
2023-04-30T19:42:54.851Z,11.65
2023-04-30T19:45:22.165Z,10.97
2023-04-30T19:47:49.424Z,10.53
2023-04-30T19:50:16.981Z,10.70
2023-04-30T19:52:45.902Z,11.12
2023-04-30T19:55:13.020Z,10.86
2023-04-30T19:57:40.468Z,11.16
2023-04-30T20:00:10.062Z,10.45
2023-04-30T20:02:37.271Z,10.41
2023-04-30T20:05:07.066Z,10.90
2023-04-30T20:07:35.163Z,10.82
2023-04-30T20:10:04.018Z,9.94
2023-04-30T20:12:31.647Z,10.17
2023-04-30T20:14:58.910Z,10.84
2023-04-30T20:17:26.161Z,11.21
2023-04-30T20:19:53.808Z,11.74
2023-04-30T20:22:21.223Z,11.28
2023-04-30T20:24:49.104Z,10.78
2023-04-30T20:27:17.677Z,10.76
2023-04-30T20:29:44.780Z,11.12
2023-04-30T20:32:12.084Z,10.95
2023-04-30T20:34:39.483Z,10.86
2023-04-30T20:37:06.698Z,10.64
2023-04-30T20:39:33.950Z,10.40
2023-04-30T20:42:01.175Z,10.83
2023-04-30T20:44:29.861Z,10.55
2023-04-30T20:46:57.060Z,10.36
2023-04-30T20:49:24.267Z,9.91
2023-04-30T20:51:51.465Z,10.01
2023-04-30T20:54:18.690Z,10.71
2023-04-30T20:56:45.830Z,10.89
2023-04-30T20:59:13.392Z,10.48
2023-04-30T21:01:41.961Z,10.63
2023-04-30T21:04:09.290Z,10.85
2023-04-30T21:06:36.372Z,10.79
2023-04-30T21:09:03.587Z,10.42
2023-04-30T21:11:30.708Z,10.60
2023-04-30T21:13:57.910Z,9.68
2023-04-30T21:16:25.291Z,9.98
2023-04-30T21:18:53.908Z,9.61
2023-04-30T21:21:20.973Z,9.93
2023-04-30T21:23:48.457Z,9.58
2023-04-30T21:26:15.892Z,9.39
2023-04-30T21:28:43.050Z,9.54
2023-04-30T21:31:10.303Z,9.10
2023-04-30T21:33:38.267Z,9.50
2023-04-30T21:36:07.670Z,9.74
2023-04-30T21:38:34.788Z,9.46
2023-04-30T21:41:02.036Z,9.24
2023-04-30T21:43:29.126Z,8.94
2023-04-30T21:46:02.072Z,8.72
2023-04-30T21:48:29.197Z,8.71
2023-04-30T21:50:56.313Z,8.79
2023-04-30T21:53:25.235Z,9.20
2023-04-30T21:55:52.389Z,9.32
2023-04-30T21:58:19.566Z,9.36
2023-04-30T22:00:46.740Z,8.82
2023-04-30T22:03:13.969Z,9.01
2023-04-30T22:05:41.174Z,8.89
2023-04-30T22:08:08.387Z,9.25
2023-04-30T22:10:37.068Z,9.17
2023-04-30T22:13:04.161Z,8.92
2023-04-30T22:15:40.711Z,9.26
2023-04-30T22:18:14.520Z,9.32
2023-04-30T22:20:41.760Z,8.99
2023-04-30T22:23:09.002Z,9.23
2023-04-30T22:25:37.586Z,9.61
2023-04-30T22:28:05.199Z,9.71
2023-04-30T22:30:32.421Z,9.14
2023-04-30T22:32:59.715Z,9.21
2023-04-30T22:35:27.761Z,9.84
2023-04-30T22:37:54.992Z,9.23
2023-04-30T22:40:23.133Z,9.60
2023-04-30T22:42:51.942Z,9.40
2023-04-30T22:45:19.394Z,9.92
2023-04-30T22:47:46.860Z,9.67
2023-04-30T22:50:14.157Z,9.11
2023-04-30T22:52:41.429Z,9.56
2023-04-30T22:55:09.342Z,10.46
2023-04-30T22:57:36.464Z,10.18
2023-04-30T23:00:06.256Z,10.21
2023-04-30T23:02:33.557Z,9.82
2023-04-30T23:05:00.673Z,10.09
2023-04-30T23:07:27.721Z,10.20
2023-04-30T23:09:54.993Z,10.05
2023-04-30T23:12:22.487Z,9.68
2023-04-30T23:14:49.782Z,6.21
2023-04-30T23:17:18.405Z,5.79
2023-04-30T23:19:45.620Z,6.43
2023-04-30T23:22:12.742Z,5.96
2023-04-30T23:24:39.966Z,6.04
2023-04-30T23:27:07.305Z,6.58
2023-04-30T23:29:36.159Z,6.48
2023-04-30T23:32:03.951Z,5.98
2023-04-30T23:34:32.536Z,5.72
2023-04-30T23:36:59.768Z,6.09
2023-04-30T23:39:27.148Z,5.67
2023-04-30T23:41:54.238Z,5.67
2023-04-30T23:44:21.404Z,5.90
2023-04-30T23:46:48.537Z,6.07
2023-04-30T23:49:15.785Z,5.65
2023-04-30T23:51:44.443Z,5.31
2023-04-30T23:54:11.543Z,5.15
2023-04-30T23:56:38.699Z,5.66
2023-04-30T23:59:05.857Z,5.57
